Time;durP1;ratioP1;P1;durP2;ratioP2;P2;SDS_P1;SDS_P2;PMS_P1;PMS_P2;Temp;Humidity;BMP_temperature;BMP_pressure;BME280_temperature;BME280_humidity;BME280_pressure;Samples;Min_cycle;Max_cycle;Signal;HPM_P1;HPM_P2
2022/05/19 00:01:28;;;;;;;;;11.33;11.00;;;;;;;;5120571;27;45481;-73
2022/05/19 00:03:53;;;;;;;;;11.67;11.67;;;;;;;;5119164;27;45166;-73
2022/05/19 00:06:19;;;;;;;;;8.67;8.67;;;;;;;;5120404;27;45511;-73
2022/05/19 00:08:44;;;;;;;;;10.33;10.00;;;;;;;;5120226;27;45317;-72
2022/05/19 00:11:13;;;;;;;;;11.00;10.67;;;;;;;;5120055;27;45277;-73
2022/05/19 00:13:38;;;;;;;;;12.00;12.00;;;;;;;;5120606;27;45294;-73
2022/05/19 00:16:05;;;;;;;;;13.00;12.00;;;;;;;;5107217;27;45271;-73
2022/05/19 00:18:31;;;;;;;;;13.67;11.33;;;;;;;;5099637;27;45436;-72
2022/05/19 00:20:56;;;;;;;;;10.33;10.33;;;;;;;;5099595;27;45344;-72
2022/05/19 00:23:21;;;;;;;;;10.67;10.67;;;;;;;;5099649;27;45362;-73
2022/05/19 00:25:47;;;;;;;;;13.00;12.33;;;;;;;;5099400;27;45374;-73
2022/05/19 00:28:12;;;;;;;;;11.00;10.67;;;;;;;;5099513;27;45371;-73
2022/05/19 00:30:38;;;;;;;;;12.00;11.00;;;;;;;;5098171;27;45294;-73
2022/05/19 00:33:03;;;;;;;;;12.00;12.00;;;;;;;;5099468;27;45252;-73
2022/05/19 00:35:29;;;;;;;;;12.00;12.00;;;;;;;;5099475;27;45164;-73
2022/05/19 00:37:54;;;;;;;;;11.33;11.33;;;;;;;;5099078;27;46738;-73
2022/05/19 00:40:20;;;;;;;;;11.33;11.33;;;;;;;;5097816;27;45348;-73
2022/05/19 00:42:45;;;;;;;;;10.00;10.00;;;;;;;;5099712;27;45251;-73
2022/05/19 00:45:12;;;;;;;;;11.67;11.00;;;;;;;;5099189;27;45305;-73
2022/05/19 00:47:39;;;;;;;;;10.67;10.67;;;;;;;;5099331;27;46169;-73
2022/05/19 00:50:06;;;;;;;;;10.33;10.33;;;;;;;;5099053;27;45350;-73
2022/05/19 00:52:35;;;;;;;;;7.00;7.00;;;;;;;;5099337;27;45471;-73
2022/05/19 00:55:03;;;;;;;;;11.33;11.33;;;;;;;;5099197;27;45256;-73
2022/05/19 00:57:30;;;;;;;;;9.33;8.67;;;;;;;;5101363;27;47981;-73
2022/05/19 00:59:57;;;;;;;;;11.33;10.33;;;;;;;;5102639;27;45318;-73
2022/05/19 01:02:26;;;;;;;;;11.33;11.33;;;;;;;;5101398;27;45396;-73
2022/05/19 01:04:55;;;;;;;;;13.67;12.00;;;;;;;;5102580;27;45165;-73
2022/05/19 01:07:27;;;;;;;;;15.00;15.00;;;;;;;;5102414;27;45388;-72
2022/05/19 01:09:55;;;;;;;;;13.00;13.00;;;;;;;;5102322;27;45476;-73
2022/05/19 01:12:21;;;;;;;;;11.67;11.67;;;;;;;;5102440;27;45388;-73
2022/05/19 01:14:47;;;;;;;;;14.00;12.00;;;;;;;;5102670;27;46094;-73
2022/05/19 01:17:12;;;;;;;;;12.67;12.00;;;;;;;;5122931;27;45522;-73
2022/05/19 01:19:42;;;;;;;;;11.00;10.00;;;;;;;;5122889;27;45360;-73
2022/05/19 01:22:24;;;;;;;;;9.33;9.33;;;;;;;;5123031;27;45226;-73
2022/05/19 01:25:05;;;;;;;;;9.67;9.33;;;;;;;;5122633;27;45219;-73
2022/05/19 01:27:30;;;;;;;;;11.00;11.00;;;;;;;;5122774;27;45397;-73
2022/05/19 01:29:56;;;;;;;;;14.00;12.67;;;;;;;;5122688;27;45380;-73
2022/05/19 01:32:23;;;;;;;;;9.33;9.33;;;;;;;;5122786;27;45209;-73
2022/05/19 01:34:48;;;;;;;;;12.00;12.00;;;;;;;;5122302;27;45344;-73
2022/05/19 01:37:13;;;;;;;;;12.00;12.00;;;;;;;;5122597;27;45212;-72
2022/05/19 01:39:39;;;;;;;;;12.67;12.33;;;;;;;;5122309;27;45364;-73
2022/05/19 01:42:04;;;;;;;;;13.00;13.00;;;;;;;;5122936;27;45303;-73
2022/05/19 01:44:38;;;;;;;;;14.67;14.00;;;;;;;;5122573;27;45445;-72
2022/05/19 01:47:15;;;;;;;;;14.00;14.00;;;;;;;;5122461;27;45459;-73
2022/05/19 01:49:45;;;;;;;;;11.33;11.33;;;;;;;;5122413;27;45227;-72
2022/05/19 01:52:22;;;;;;;;;10.67;10.67;;;;;;;;5122559;27;45316;-73
2022/05/19 01:54:58;;;;;;;;;11.67;10.33;;;;;;;;5120692;27;46290;-73
2022/05/19 01:57:42;;;;;;;;;12.00;12.00;;;;;;;;5122337;27;46219;-72
2022/05/19 02:00:13;;;;;;;;;13.00;12.67;;;;;;;;5122254;27;45320;-73
2022/05/19 02:02:42;;;;;;;;;14.67;13.33;;;;;;;;5122524;27;45335;-72
2022/05/19 02:05:13;;;;;;;;;13.67;13.00;;;;;;;;5122196;27;45425;-72
2022/05/19 02:07:39;;;;;;;;;11.33;11.33;;;;;;;;5121647;27;46115;-72
2022/05/19 02:10:14;;;;;;;;;13.33;13.33;;;;;;;;5120532;27;45314;-73
2022/05/19 02:12:39;;;;;;;;;14.00;13.00;;;;;;;;5122195;27;45314;-72
2022/05/19 02:15:07;;;;;;;;;13.67;13.33;;;;;;;;5117265;27;45318;-73
2022/05/19 02:17:34;;;;;;;;;12.00;12.00;;;;;;;;5101432;27;47506;-72
2022/05/19 02:20:03;;;;;;;;;12.67;12.67;;;;;;;;5101272;27;45156;-73
2022/05/19 02:22:33;;;;;;;;;13.00;13.00;;;;;;;;5101372;27;45309;-73
2022/05/19 02:25:02;;;;;;;;;11.00;11.00;;;;;;;;5101314;27;45309;-73
2022/05/19 02:27:34;;;;;;;;;13.33;12.67;;;;;;;;5101109;27;46436;-72
2022/05/19 02:30:01;;;;;;;;;12.67;12.33;;;;;;;;5101074;27;45329;-73
2022/05/19 02:32:27;;;;;;;;;13.33;13.33;;;;;;;;5101319;27;45311;-73
2022/05/19 02:34:52;;;;;;;;;11.67;11.67;;;;;;;;5100649;27;45223;-72
2022/05/19 02:37:17;;;;;;;;;13.33;13.33;;;;;;;;5099517;27;46984;-73
2022/05/19 02:39:43;;;;;;;;;12.00;12.00;;;;;;;;5100600;27;45297;-73
2022/05/19 02:42:08;;;;;;;;;9.67;9.67;;;;;;;;5099919;27;45210;-73
2022/05/19 02:44:33;;;;;;;;;8.67;8.00;;;;;;;;5100947;27;45372;-73
2022/05/19 02:46:58;;;;;;;;;14.00;14.00;;;;;;;;5099570;27;47264;-73
2022/05/19 02:49:24;;;;;;;;;12.67;12.67;;;;;;;;5100917;27;45342;-72
2022/05/19 02:51:49;;;;;;;;;14.00;13.00;;;;;;;;5100937;27;45258;-73
2022/05/19 02:54:20;;;;;;;;;15.00;15.00;;;;;;;;5100654;27;45294;-73
2022/05/19 02:56:45;;;;;;;;;14.67;12.67;;;;;;;;5099553;27;47248;-73
2022/05/19 02:59:11;;;;;;;;;10.33;10.33;;;;;;;;5099330;27;45287;-73
2022/05/19 03:01:36;;;;;;;;;11.67;11.67;;;;;;;;5100999;27;45368;-73
2022/05/19 03:04:01;;;;;;;;;12.00;12.00;;;;;;;;5099294;27;46237;-73
2022/05/19 03:06:26;;;;;;;;;12.00;12.00;;;;;;;;5100639;27;46098;-73
2022/05/19 03:08:51;;;;;;;;;11.00;10.00;;;;;;;;5099106;27;45790;-73
2022/05/19 03:11:17;;;;;;;;;13.00;13.00;;;;;;;;5100814;27;45325;-73
2022/05/19 03:13:42;;;;;;;;;15.00;15.00;;;;;;;;5099302;27;47299;-73
2022/05/19 03:16:07;;;;;;;;;11.67;11.67;;;;;;;;5113838;27;45463;-72
2022/05/19 03:18:33;;;;;;;;;12.00;12.00;;;;;;;;5120167;27;45259;-73
2022/05/19 03:20:58;;;;;;;;;12.00;11.67;;;;;;;;5119885;27;45283;-73
2022/05/19 03:23:23;;;;;;;;;14.00;13.67;;;;;;;;5120864;27;45510;-73
2022/05/19 03:25:48;;;;;;;;;9.00;9.00;;;;;;;;5120905;27;45356;-72
2022/05/19 03:28:14;;;;;;;;;10.67;10.67;;;;;;;;5120902;27;45360;-73
2022/05/19 03:30:40;;;;;;;;;12.00;11.00;;;;;;;;5121200;27;45305;-72
2022/05/19 03:33:05;;;;;;;;;12.00;12.00;;;;;;;;5120745;27;45465;-72
2022/05/19 03:35:30;;;;;;;;;9.00;9.00;;;;;;;;5120894;27;46168;-73
2022/05/19 03:37:56;;;;;;;;;12.00;12.00;;;;;;;;5120663;27;45347;-72
2022/05/19 03:40:21;;;;;;;;;13.67;13.67;;;;;;;;5120797;27;45570;-72
2022/05/19 03:42:46;;;;;;;;;12.33;12.00;;;;;;;;5120688;27;45534;-73
2022/05/19 03:45:11;;;;;;;;;14.67;13.67;;;;;;;;5120745;27;46051;-73
2022/05/19 03:47:36;;;;;;;;;11.33;11.33;;;;;;;;5120547;27;45246;-73
2022/05/19 03:50:03;;;;;;;;;13.67;13.67;;;;;;;;5120882;27;45214;-73
2022/05/19 03:52:28;;;;;;;;;9.33;9.33;;;;;;;;5119319;27;46233;-73
2022/05/19 03:54:53;;;;;;;;;10.67;10.67;;;;;;;;5120294;27;45673;-72
2022/05/19 03:57:21;;;;;;;;;11.33;11.00;;;;;;;;5120615;27;45309;-73
2022/05/19 03:59:46;;;;;;;;;10.67;10.67;;;;;;;;5120772;27;45263;-72
2022/05/19 04:02:11;;;;;;;;;11.00;11.00;;;;;;;;5119182;27;45528;-73
2022/05/19 04:04:37;;;;;;;;;12.33;12.33;;;;;;;;5119050;27;48475;-73
2022/05/19 04:07:02;;;;;;;;;10.33;10.33;;;;;;;;5120278;27;45319;-72
2022/05/19 04:09:27;;;;;;;;;11.67;11.33;;;;;;;;5120461;27;45491;-73
2022/05/19 04:11:52;;;;;;;;;11.67;11.00;;;;;;;;5120297;27;45523;-73
2022/05/19 04:14:19;;;;;;;;;17.33;15.67;;;;;;;;5120327;27;46618;-73
2022/05/19 04:16:45;;;;;;;;;12.00;12.00;;;;;;;;5101344;27;45483;-73
2022/05/19 04:19:10;;;;;;;;;13.67;11.67;;;;;;;;5099751;27;45267;-73
2022/05/19 04:21:36;;;;;;;;;11.67;11.67;;;;;;;;5098252;27;45647;-72
2022/05/19 04:24:01;;;;;;;;;14.00;14.00;;;;;;;;5097877;27;47202;-72
2022/05/19 04:26:27;;;;;;;;;10.00;10.00;;;;;;;;5099815;27;45297;-72
2022/05/19 04:28:52;;;;;;;;;13.00;11.33;;;;;;;;5099715;27;45356;-72
2022/05/19 04:31:17;;;;;;;;;9.00;9.00;;;;;;;;5099022;27;46262;-73
2022/05/19 04:33:42;;;;;;;;;10.33;10.33;;;;;;;;5082566;27;45279;-72
2022/05/19 04:36:07;;;;;;;;;12.00;12.00;;;;;;;;5095495;27;45385;-73
2022/05/19 04:38:33;;;;;;;;;12.00;12.00;;;;;;;;5098104;27;45255;-73
2022/05/19 04:41:03;;;;;;;;;9.00;9.00;;;;;;;;5103086;27;45264;-72
2022/05/19 04:43:29;;;;;;;;;11.67;10.67;;;;;;;;5102872;27;45362;-73
2022/05/19 04:45:55;;;;;;;;;12.00;12.00;;;;;;;;5101446;27;45373;-72
2022/05/19 04:48:21;;;;;;;;;15.00;12.33;;;;;;;;5103143;27;45313;-73
2022/05/19 04:50:50;;;;;;;;;13.67;11.33;;;;;;;;5102785;27;45433;-73
2022/05/19 04:53:15;;;;;;;;;11.33;11.33;;;;;;;;5102582;27;45219;-73
2022/05/19 04:55:41;;;;;;;;;11.00;11.00;;;;;;;;5099081;27;45468;-75
2022/05/19 04:58:06;;;;;;;;;10.67;10.67;;;;;;;;5102455;27;45208;-73
2022/05/19 05:00:32;;;;;;;;;11.33;11.33;;;;;;;;5102718;27;45224;-73
2022/05/19 05:02:57;;;;;;;;;11.33;10.67;;;;;;;;5101330;27;47141;-72
2022/05/19 05:05:23;;;;;;;;;11.67;11.00;;;;;;;;5102690;27;45317;-73
2022/05/19 05:07:48;;;;;;;;;11.33;11.33;;;;;;;;5102610;27;45389;-73
2022/05/19 05:10:13;;;;;;;;;11.33;10.33;;;;;;;;5102268;27;45396;-73
2022/05/19 05:12:39;;;;;;;;;15.00;11.33;;;;;;;;5101101;27;48306;-73
2022/05/19 05:15:04;;;;;;;;;23.00;20.00;;;;;;;;5106888;27;45274;-73
2022/05/19 05:17:29;;;;;;;;;14.00;14.00;;;;;;;;5123369;27;45388;-72
2022/05/19 05:19:55;;;;;;;;;15.00;12.00;;;;;;;;5122906;27;45618;-73
2022/05/19 05:22:20;;;;;;;;;12.33;12.33;;;;;;;;5122885;27;45291;-73
2022/05/19 05:24:45;;;;;;;;;12.00;12.00;;;;;;;;5122705;27;45501;-72
2022/05/19 05:27:10;;;;;;;;;10.33;10.33;;;;;;;;5122978;27;45486;-73
2022/05/19 05:29:35;;;;;;;;;12.33;12.33;;;;;;;;5122745;27;45534;-73
2022/05/19 05:32:01;;;;;;;;;12.33;12.33;;;;;;;;5122892;27;45396;-73
2022/05/19 05:34:26;;;;;;;;;13.00;12.00;;;;;;;;5121360;27;45742;-75
2022/05/19 05:36:51;;;;;;;;;11.00;11.00;;;;;;;;5121517;27;45307;-73
2022/05/19 05:39:16;;;;;;;;;11.00;11.00;;;;;;;;5122301;27;45305;-73
2022/05/19 05:41:42;;;;;;;;;11.00;11.00;;;;;;;;5121941;27;45359;-73
2022/05/19 05:44:07;;;;;;;;;12.00;11.33;;;;;;;;5122772;27;45368;-73
2022/05/19 05:46:32;;;;;;;;;11.67;11.67;;;;;;;;5122813;27;45308;-72
2022/05/19 05:48:57;;;;;;;;;10.00;10.00;;;;;;;;5122445;27;45575;-72
2022/05/19 05:51:23;;;;;;;;;11.00;11.00;;;;;;;;5122506;27;45539;-73
2022/05/19 05:53:48;;;;;;;;;9.67;9.67;;;;;;;;5122313;27;45408;-73
2022/05/19 05:56:14;;;;;;;;;12.33;12.33;;;;;;;;5122615;27;45356;-72
2022/05/19 05:58:40;;;;;;;;;10.67;10.33;;;;;;;;5120914;27;45501;-73
2022/05/19 06:01:07;;;;;;;;;13.00;13.00;;;;;;;;5120946;27;48175;-72
2022/05/19 06:03:32;;;;;;;;;12.00;11.67;;;;;;;;5121004;27;45463;-72
2022/05/19 06:05:58;;;;;;;;;10.00;10.00;;;;;;;;5122515;27;45273;-73
2022/05/19 06:08:23;;;;;;;;;13.00;12.33;;;;;;;;5122233;27;45338;-72
2022/05/19 06:10:48;;;;;;;;;11.00;11.00;;;;;;;;5121802;27;45501;-73
2022/05/19 06:13:15;;;;;;;;;11.00;10.33;;;;;;;;5120878;27;45938;-73
2022/05/19 06:15:40;;;;;;;;;11.67;11.00;;;;;;;;5103149;27;45412;-73
2022/05/19 06:18:05;;;;;;;;;14.00;13.33;;;;;;;;5081565;27;45334;-73
2022/05/19 06:20:31;;;;;;;;;11.00;11.00;;;;;;;;5081083;27;46497;-73
2022/05/19 06:22:58;;;;;;;;;12.00;12.00;;;;;;;;5080838;27;45377;-73
2022/05/19 06:25:24;;;;;;;;;12.00;12.00;;;;;;;;5079467;28;45348;-73
2022/05/19 06:27:50;;;;;;;;;12.33;12.33;;;;;;;;5080666;27;46143;-73
2022/05/19 06:30:16;;;;;;;;;11.00;10.67;;;;;;;;5080793;27;45985;-73
2022/05/19 06:32:42;;;;;;;;;10.67;10.67;;;;;;;;5079976;27;45226;-75
2022/05/19 06:35:08;;;;;;;;;13.33;13.33;;;;;;;;5080290;27;45197;-74
2022/05/19 06:37:34;;;;;;;;;11.33;11.33;;;;;;;;5079680;27;45421;-73
2022/05/19 06:39:59;;;;;;;;;12.67;12.00;;;;;;;;5096051;27;46135;-72
2022/05/19 06:42:24;;;;;;;;;13.00;13.00;;;;;;;;5101238;27;45340;-73
2022/05/19 06:44:50;;;;;;;;;13.67;13.67;;;;;;;;5101362;27;45373;-72
2022/05/19 06:47:15;;;;;;;;;12.67;12.67;;;;;;;;5101012;27;45320;-73
2022/05/19 06:49:45;;;;;;;;;14.00;14.00;;;;;;;;5100976;27;46315;-72
2022/05/19 06:52:13;;;;;;;;;14.00;14.00;;;;;;;;5096462;27;45460;-73
2022/05/19 06:54:38;;;;;;;;;15.00;15.00;;;;;;;;5078129;28;45325;-73
2022/05/19 06:57:03;;;;;;;;;14.67;14.67;;;;;;;;5080233;27;45486;-73
2022/05/19 06:59:28;;;;;;;;;15.67;15.67;;;;;;;;5080857;27;46307;-73
2022/05/19 07:01:54;;;;;;;;;19.00;17.67;;;;;;;;5078935;28;45788;-73
2022/05/19 07:04:19;;;;;;;;;15.00;15.00;;;;;;;;5083986;27;45333;-73
2022/05/19 07:06:44;;;;;;;;;16.33;15.67;;;;;;;;5083524;27;45402;-73
2022/05/19 07:09:10;;;;;;;;;15.00;15.00;;;;;;;;5085451;27;47007;-73
2022/05/19 07:11:35;;;;;;;;;16.33;16.33;;;;;;;;5077734;28;45899;-74
2022/05/19 07:14:03;;;;;;;;;15.00;15.00;;;;;;;;5096415;27;45438;-73
2022/05/19 07:16:29;;;;;;;;;14.67;13.67;;;;;;;;5116497;27;45490;-73
2022/05/19 07:21:42;;;;;;;;;15.00;15.00;;;;;;;;5079758;28;45357;-74
2022/05/19 07:24:08;;;;;;;;;14.67;14.67;;;;;;;;5079975;28;45245;-72
2022/05/19 07:26:33;;;;;;;;;16.33;14.00;;;;;;;;5079871;27;45297;-73
2022/05/19 07:28:58;;;;;;;;;18.67;17.00;;;;;;;;5079724;28;45458;-73
2022/05/19 07:31:23;;;;;;;;;15.00;14.33;;;;;;;;5082506;27;45253;-73
2022/05/19 07:33:48;;;;;;;;;19.33;16.00;;;;;;;;5085270;27;45392;-73
2022/05/19 07:36:14;;;;;;;;;13.00;12.33;;;;;;;;5079602;28;45372;-73
2022/05/19 07:38:39;;;;;;;;;16.00;16.00;;;;;;;;5079199;28;45398;-73
2022/05/19 07:41:04;;;;;;;;;13.00;13.00;;;;;;;;5079738;28;45271;-73
2022/05/19 07:43:39;;;;;;;;;14.33;14.33;;;;;;;;5079796;28;45349;-73
2022/05/19 07:46:08;;;;;;;;;13.33;13.00;;;;;;;;5079653;28;45429;-73
2022/05/19 07:48:35;;;;;;;;;17.00;16.00;;;;;;;;5079349;28;45982;-73
2022/05/19 07:51:00;;;;;;;;;17.00;16.00;;;;;;;;5079103;28;45342;-72
2022/05/19 07:53:25;;;;;;;;;15.67;15.00;;;;;;;;5077740;28;45315;-74
2022/05/19 07:55:51;;;;;;;;;17.33;17.33;;;;;;;;5079296;28;45312;-74
2022/05/19 07:58:16;;;;;;;;;16.00;15.00;;;;;;;;5079473;28;46203;-73
2022/05/19 08:00:41;;;;;;;;;15.33;15.33;;;;;;;;5092401;27;45198;-73
2022/05/19 08:03:06;;;;;;;;;14.67;14.67;;;;;;;;5099988;27;45314;-75
2022/05/19 08:05:32;;;;;;;;;18.33;15.33;;;;;;;;5102478;27;45345;-75
2022/05/19 08:07:57;;;;;;;;;16.67;16.00;;;;;;;;5100529;27;45423;-74
2022/05/19 08:10:25;;;;;;;;;15.00;14.33;;;;;;;;5102746;27;45463;-75
2022/05/19 08:15:35;;;;;;;;;15.33;15.33;;;;;;;;5111638;27;45330;-76
2022/05/19 08:18:10;;;;;;;;;15.00;15.00;;;;;;;;5121972;27;46996;-77
2022/05/19 08:20:35;;;;;;;;;17.33;17.33;;;;;;;;5112592;27;45648;-76
2022/05/19 08:23:01;;;;;;;;;17.00;14.67;;;;;;;;5103376;27;45517;-75
2022/05/19 08:25:26;;;;;;;;;15.33;15.33;;;;;;;;5103095;27;45371;-75
2022/05/19 08:27:52;;;;;;;;;17.33;17.33;;;;;;;;5103137;27;45336;-77
2022/05/19 08:30:17;;;;;;;;;16.33;16.33;;;;;;;;5101725;27;45406;-76
2022/05/19 08:32:43;;;;;;;;;20.00;19.00;;;;;;;;5103011;27;45640;-74
2022/05/19 08:35:08;;;;;;;;;14.00;14.00;;;;;;;;5103293;27;45352;-75
2022/05/19 08:37:34;;;;;;;;;14.00;14.00;;;;;;;;5101707;27;48397;-76
2022/05/19 08:39:59;;;;;;;;;20.67;19.33;;;;;;;;5102911;27;45328;-76
2022/05/19 08:42:27;;;;;;;;;18.33;18.33;;;;;;;;5103512;27;45158;-77
2022/05/19 08:44:54;;;;;;;;;19.33;19.33;;;;;;;;5103209;27;45456;-76
2022/05/19 08:47:22;;;;;;;;;17.67;15.33;;;;;;;;5103236;27;46047;-77
2022/05/19 08:50:10;;;;;;;;;19.33;19.33;;;;;;;;5103269;27;45294;-74
2022/05/19 08:52:40;;;;;;;;;21.00;20.00;;;;;;;;5089547;27;45392;-74
2022/05/19 08:55:06;;;;;;;;;20.00;19.00;;;;;;;;5081376;27;45533;-75
2022/05/19 08:57:50;;;;;;;;;18.33;18.33;;;;;;;;5081749;27;46487;-74
2022/05/19 09:00:15;;;;;;;;;18.00;18.00;;;;;;;;5100848;27;45365;-74
2022/05/19 09:02:58;;;;;;;;;21.33;21.00;;;;;;;;5102502;27;45722;-74
2022/05/19 09:05:26;;;;;;;;;22.00;22.00;;;;;;;;5101843;27;45559;-74
2022/05/19 09:08:00;;;;;;;;;20.67;20.67;;;;;;;;5101637;27;46650;-74
2022/05/19 09:10:28;;;;;;;;;20.67;20.67;;;;;;;;5101504;27;45405;-73
2022/05/19 09:13:01;;;;;;;;;20.33;20.33;;;;;;;;5102084;27;45214;-72
2022/05/19 09:15:26;;;;;;;;;23.67;21.00;;;;;;;;5095425;27;45383;-74
2022/05/19 09:17:52;;;;;;;;;24.00;23.67;;;;;;;;5079216;27;48453;-74
2022/05/19 09:20:20;;;;;;;;;25.33;24.67;;;;;;;;5081473;27;45360;-76
2022/05/19 09:22:45;;;;;;;;;24.33;22.67;;;;;;;;5099905;27;45315;-78
2022/05/19 09:25:13;;;;;;;;;24.67;24.67;;;;;;;;5101531;27;45223;-75
2022/05/19 09:27:40;;;;;;;;;21.67;21.67;;;;;;;;5101741;27;45358;-75
2022/05/19 09:30:07;;;;;;;;;21.33;21.33;;;;;;;;5099923;27;45610;-76
2022/05/19 09:32:44;;;;;;;;;25.33;23.67;;;;;;;;5101916;27;45326;-75
2022/05/19 09:35:39;;;;;;;;;27.33;26.00;;;;;;;;5100394;27;46176;-75
2022/05/19 09:38:06;;;;;;;;;23.33;23.00;;;;;;;;5096268;27;45526;-76
2022/05/19 09:40:34;;;;;;;;;21.67;21.00;;;;;;;;5101261;27;45447;-73
2022/05/19 09:43:13;;;;;;;;;24.00;24.00;;;;;;;;5101582;27;45436;-73
2022/05/19 09:45:41;;;;;;;;;21.33;21.00;;;;;;;;5100104;27;47184;-74
2022/05/19 09:48:08;;;;;;;;;21.67;21.67;;;;;;;;5101210;27;45450;-74
2022/05/19 09:50:41;;;;;;;;;23.00;20.67;;;;;;;;5099367;27;45496;-74
2022/05/19 09:53:12;;;;;;;;;18.00;16.67;;;;;;;;5082007;27;45278;-73
2022/05/19 09:55:41;;;;;;;;;16.33;15.67;;;;;;;;5098662;27;45304;-73
2022/05/19 09:58:09;;;;;;;;;18.33;18.33;;;;;;;;5100307;27;47336;-73
2022/05/19 10:00:49;;;;;;;;;14.33;14.33;;;;;;;;5101719;27;45410;-72
2022/05/19 10:03:22;;;;;;;;;16.00;14.33;;;;;;;;5101964;27;45230;-73
2022/05/19 10:05:48;;;;;;;;;12.00;12.00;;;;;;;;5100357;27;47401;-73
2022/05/19 10:08:16;;;;;;;;;12.67;12.00;;;;;;;;5101429;27;45344;-72
2022/05/19 10:11:01;;;;;;;;;11.00;11.00;;;;;;;;5101388;27;45344;-73
2022/05/19 10:13:31;;;;;;;;;13.00;13.00;;;;;;;;5098924;27;45240;-73
2022/05/19 10:16:08;;;;;;;;;12.00;10.67;;;;;;;;5113005;27;45433;-73
2022/05/19 10:19:06;;;;;;;;;12.00;12.00;;;;;;;;5121990;27;45485;-72
2022/05/19 10:21:40;;;;;;;;;12.33;12.00;;;;;;;;5109295;27;45355;-74
2022/05/19 10:24:24;;;;;;;;;13.67;13.00;;;;;;;;5121871;27;45294;-73
2022/05/19 10:31:02;;;;;;;;;14.67;14.00;;;;;;;;5120378;27;47367;-73
2022/05/19 10:33:05;;;;;;;;;14.67;14.67;;;;;;;;5121733;27;45263;-73
2022/05/19 10:35:43;;;;;;;;;14.00;14.00;;;;;;;;5121975;27;45443;-72
2022/05/19 10:38:11;;;;;;;;;14.67;14.67;;;;;;;;5120025;27;46400;-72
2022/05/19 10:40:44;;;;;;;;;13.67;12.67;;;;;;;;5119907;27;47785;-72
2022/05/19 10:43:16;;;;;;;;;12.33;12.33;;;;;;;;5120308;27;45384;-72
2022/05/19 10:45:46;;;;;;;;;11.67;9.67;;;;;;;;5121709;27;45364;-72
2022/05/19 10:48:27;;;;;;;;;11.33;11.33;;;;;;;;5120520;27;45267;-71
2022/05/19 10:50:59;;;;;;;;;10.33;9.00;;;;;;;;5120126;27;48395;-73
2022/05/19 10:53:33;;;;;;;;;11.33;11.33;;;;;;;;5120017;27;46153;-72
2022/05/19 10:55:58;;;;;;;;;11.33;11.33;;;;;;;;5121726;27;45212;-73
2022/05/19 10:58:34;;;;;;;;;10.00;9.67;;;;;;;;5121558;27;45142;-73
2022/05/19 11:01:10;;;;;;;;;9.67;9.67;;;;;;;;5119810;27;47707;-72
2022/05/19 11:03:43;;;;;;;;;13.00;11.67;;;;;;;;5121453;27;45302;-72
2022/05/19 11:06:21;;;;;;;;;10.67;9.67;;;;;;;;5121580;27;45279;-72
2022/05/19 11:09:00;;;;;;;;;10.00;10.00;;;;;;;;5119345;27;47239;-72
2022/05/19 11:11:44;;;;;;;;;11.67;10.33;;;;;;;;5121148;27;46156;-72
2022/05/19 11:14:24;;;;;;;;;10.67;10.00;;;;;;;;5121231;27;45388;-72
2022/05/19 11:17:01;;;;;;;;;7.67;7.00;;;;;;;;5083126;27;45380;-72
2022/05/19 11:19:32;;;;;;;;;10.33;8.33;;;;;;;;5100628;27;45357;-72
2022/05/19 11:22:00;;;;;;;;;9.00;9.00;;;;;;;;5100387;27;46408;-72
2022/05/19 11:24:28;;;;;;;;;10.00;10.00;;;;;;;;5100158;27;45341;-72
2022/05/19 11:27:07;;;;;;;;;9.33;9.33;;;;;;;;5100501;27;45469;-72
2022/05/19 11:29:39;;;;;;;;;9.67;9.67;;;;;;;;5098816;27;46114;-72
2022/05/19 11:32:07;;;;;;;;;10.67;10.67;;;;;;;;5100225;27;45273;-72
2022/05/19 11:34:50;;;;;;;;;10.00;10.00;;;;;;;;5099939;27;45276;-73
2022/05/19 11:37:15;;;;;;;;;9.00;9.00;;;;;;;;5100331;27;45327;-71
2022/05/19 11:40:01;;;;;;;;;8.67;8.67;;;;;;;;5094885;27;47199;-73
2022/05/19 11:42:32;;;;;;;;;9.67;9.67;;;;;;;;5092216;27;46090;-72
2022/05/19 11:44:57;;;;;;;;;8.33;8.33;;;;;;;;5100250;27;45299;-71
2022/05/19 11:55:12;;;;;;;;;8.00;8.00;;;;;;;;5100260;27;45336;-71
2022/05/19 11:55:50;;;;;;;;;10.00;9.67;;;;;;;;5099945;27;45219;-72
2022/05/19 11:58:20;;;;;;;;;10.67;10.67;;;;;;;;5100165;27;45653;-72
2022/05/19 12:01:00;;;;;;;;;11.00;10.00;;;;;;;;5098586;27;46172;-72
2022/05/19 12:03:34;;;;;;;;;10.33;10.33;;;;;;;;5098044;27;46193;-74
2022/05/19 12:06:09;;;;;;;;;9.67;9.67;;;;;;;;5077934;27;45326;-72
2022/05/19 12:08:34;;;;;;;;;11.00;9.33;;;;;;;;5078814;27;45517;-71
2022/05/19 12:11:19;;;;;;;;;10.00;10.00;;;;;;;;5077548;28;46319;-71
2022/05/19 12:13:46;;;;;;;;;10.00;10.00;;;;;;;;5079176;28;45333;-71
2022/05/19 12:16:17;;;;;;;;;12.33;10.33;;;;;;;;5107074;27;45341;-71
2022/05/19 12:18:44;;;;;;;;;10.00;10.00;;;;;;;;5120474;27;45305;-71
2022/05/19 12:21:14;;;;;;;;;9.00;9.00;;;;;;;;5120262;27;45441;-72
2022/05/19 12:23:41;;;;;;;;;12.67;11.00;;;;;;;;5118491;27;47680;-73
2022/05/19 12:26:11;;;;;;;;;11.00;10.33;;;;;;;;5120055;27;45384;-73
2022/05/19 12:28:48;;;;;;;;;9.67;9.67;;;;;;;;5114375;27;45415;-72
2022/05/19 12:34:28;;;;;;;;;9.00;9.00;;;;;;;;5094713;27;45349;-72
2022/05/19 12:37:06;;;;;;;;;48.00;39.67;;;;;;;;5099146;27;45333;-72
2022/05/19 12:39:41;;;;;;;;;16.33;16.33;;;;;;;;5099070;27;45402;-71
2022/05/19 12:42:19;;;;;;;;;12.67;11.33;;;;;;;;5099352;27;45287;-72
2022/05/19 12:44:50;;;;;;;;;9.67;9.67;;;;;;;;5087535;27;45314;-73
2022/05/19 12:47:15;;;;;;;;;26.33;25.00;;;;;;;;5077517;27;45397;-73
2022/05/19 12:50:01;;;;;;;;;15.00;13.67;;;;;;;;5077517;28;45347;-71
2022/05/19 12:52:46;;;;;;;;;9.67;9.67;;;;;;;;5082125;27;45364;-71
2022/05/19 12:55:27;;;;;;;;;10.00;10.00;;;;;;;;5081935;28;45427;-71
2022/05/19 12:57:54;;;;;;;;;12.00;12.00;;;;;;;;5082397;28;45291;-71
2022/05/19 13:00:34;;;;;;;;;11.67;11.67;;;;;;;;5080868;28;45407;-72
2022/05/19 13:03:02;;;;;;;;;13.00;12.67;;;;;;;;5098741;27;45362;-71
2022/05/19 13:05:33;;;;;;;;;11.33;9.67;;;;;;;;5101167;27;47168;-71
2022/05/19 13:08:08;;;;;;;;;10.67;10.33;;;;;;;;5102452;27;45312;-71
2022/05/19 13:10:35;;;;;;;;;9.00;9.00;;;;;;;;5102308;27;45437;-71
2022/05/19 13:13:12;;;;;;;;;8.67;8.00;;;;;;;;5101142;27;46228;-72
2022/05/19 13:15:56;;;;;;;;;9.00;9.00;;;;;;;;5111538;27;46576;-71
2022/05/19 13:18:24;;;;;;;;;10.33;8.67;;;;;;;;5112210;27;45287;-71
2022/05/19 13:20:49;;;;;;;;;9.00;9.00;;;;;;;;5102659;27;45365;-72
2022/05/19 13:23:18;;;;;;;;;10.67;10.67;;;;;;;;5102185;27;45394;-71
2022/05/19 13:25:45;;;;;;;;;10.00;9.00;;;;;;;;5102201;27;45513;-71
2022/05/19 13:30:56;;;;;;;;;9.00;9.00;;;;;;;;5102088;27;45290;-71
2022/05/19 13:33:23;;;;;;;;;7.67;7.67;;;;;;;;5102010;27;45222;-71
2022/05/19 13:35:59;;;;;;;;;9.00;9.00;;;;;;;;5100662;27;47007;-72
2022/05/19 13:38:24;;;;;;;;;8.33;8.33;;;;;;;;5081078;28;45430;-72
2022/05/19 13:40:50;;;;;;;;;9.00;9.00;;;;;;;;5081744;28;45278;-73
2022/05/19 13:43:41;;;;;;;;;10.33;9.33;;;;;;;;5081653;28;45343;-72
2022/05/19 13:46:15;;;;;;;;;8.00;8.00;;;;;;;;5080256;28;45338;-72
2022/05/19 13:48:51;;;;;;;;;8.00;8.00;;;;;;;;5081408;28;45218;-72
2022/05/19 13:51:23;;;;;;;;;7.00;7.00;;;;;;;;5081518;28;45371;-72
2022/05/19 13:54:02;;;;;;;;;4.00;4.00;;;;;;;;5081058;28;45357;-72
2022/05/19 13:56:40;;;;;;;;;5.67;5.67;;;;;;;;5081388;28;45350;-72
2022/05/19 13:59:06;;;;;;;;;8.00;8.00;;;;;;;;5081233;28;45548;-72
2022/05/19 14:01:42;;;;;;;;;6.00;6.00;;;;;;;;5079452;28;45381;-74
2022/05/19 14:04:09;;;;;;;;;7.00;7.00;;;;;;;;5080748;28;45312;-73
2022/05/19 14:06:36;;;;;;;;;5.33;5.33;;;;;;;;5079959;28;45327;-73
2022/05/19 14:09:02;;;;;;;;;5.67;5.67;;;;;;;;5080788;28;45267;-74
2022/05/19 14:11:27;;;;;;;;;6.00;6.00;;;;;;;;5080502;28;45222;-72
2022/05/19 14:13:54;;;;;;;;;7.00;6.00;;;;;;;;5079555;28;45540;-72
2022/05/19 14:16:20;;;;;;;;;6.33;6.33;;;;;;;;5111158;27;46968;-72
2022/05/19 14:18:48;;;;;;;;;5.00;5.00;;;;;;;;5122122;27;45411;-72
2022/05/19 14:21:18;;;;;;;;;7.00;7.00;;;;;;;;5120826;27;45396;-73
2022/05/19 14:24:01;;;;;;;;;6.67;6.67;;;;;;;;5118103;27;47185;-73
2022/05/19 14:26:26;;;;;;;;;5.00;5.00;;;;;;;;5119614;27;46221;-73
2022/05/19 14:28:53;;;;;;;;;5.67;5.67;;;;;;;;5120188;27;45506;-73
2022/05/19 14:31:28;;;;;;;;;5.33;5.33;;;;;;;;5120865;27;45322;-73
2022/05/19 14:34:06;;;;;;;;;6.00;6.00;;;;;;;;5121255;27;45341;-72
2022/05/19 14:36:37;;;;;;;;;7.00;7.00;;;;;;;;5121003;27;45518;-72
2022/05/19 14:39:05;;;;;;;;;5.00;5.00;;;;;;;;5121447;27;45491;-72
2022/05/19 14:44:22;;;;;;;;;5.00;5.00;;;;;;;;5121792;27;45290;-72
2022/05/19 14:46:59;;;;;;;;;4.00;4.00;;;;;;;;5121558;27;46392;-72
2022/05/19 14:49:28;;;;;;;;;3.00;3.00;;;;;;;;5120290;27;45566;-72
2022/05/19 14:51:53;;;;;;;;;3.67;2.67;;;;;;;;5121748;27;45364;-73
2022/05/19 14:54:20;;;;;;;;;4.33;4.33;;;;;;;;5121431;27;45327;-72